createdAt,value
2023-02-15T00:00:46.012Z,102603.09
2023-02-15T00:03:17.800Z,102597.97
2023-02-15T00:05:49.323Z,102606.94
2023-02-15T00:08:20.810Z,102603.00
2023-02-15T00:10:52.333Z,102601.44
2023-02-15T00:13:24.018Z,102600.97
2023-02-15T00:15:55.523Z,102602.97
2023-02-15T00:18:27.344Z,102597.09
2023-02-15T00:20:58.889Z,102593.03
2023-02-15T00:23:30.714Z,102580.97
2023-02-15T00:26:02.416Z,102584.56
2023-02-15T00:28:34.456Z,102578.44
2023-02-15T00:31:06.149Z,102582.16
2023-02-15T00:33:38.069Z,102579.53
2023-02-15T00:36:09.588Z,102578.69
2023-02-15T00:38:41.394Z,102576.31
2023-02-15T00:41:13.232Z,102581.81
2023-02-15T00:43:44.717Z,102578.44
2023-02-15T00:46:16.222Z,102580.38
2023-02-15T00:48:47.716Z,102579.66
2023-02-15T00:51:19.295Z,102573.91
2023-02-15T00:53:50.780Z,102584.63
2023-02-15T00:56:22.577Z,102421.84
2023-02-15T00:58:54.063Z,102573.50
2023-02-15T01:01:27.192Z,102563.22
2023-02-15T01:03:58.791Z,102569.31
2023-02-15T01:06:30.748Z,102566.81
2023-02-15T01:09:02.278Z,102570.41
2023-02-15T01:11:34.258Z,102562.63
2023-02-15T01:14:06.437Z,102561.78
2023-02-15T01:16:38.115Z,102562.75
2023-02-15T01:19:09.631Z,102559.28
2023-02-15T01:21:42.018Z,102559.63
2023-02-15T01:24:13.805Z,102558.06
2023-02-15T01:26:45.558Z,102555.44
2023-02-15T01:29:17.111Z,102545.16
2023-02-15T01:31:49.064Z,102542.53
2023-02-15T01:34:20.642Z,102539.91
2023-02-15T01:36:52.450Z,102526.16
2023-02-15T01:39:23.954Z,102532.38
2023-02-15T01:41:55.877Z,102527.25
2023-02-15T01:44:27.555Z,102530.81
2023-02-15T01:46:59.424Z,102524.84
2023-02-15T01:49:30.930Z,102520.78
2023-02-15T01:52:02.855Z,102518.22
2023-02-15T01:54:34.944Z,102373.44
2023-02-15T01:57:06.664Z,102504.72
2023-02-15T01:59:38.158Z,102506.75
2023-02-15T02:02:10.273Z,102502.81
2023-02-15T02:04:41.824Z,102495.88
2023-02-15T02:07:13.691Z,102495.16
2023-02-15T02:09:45.230Z,102496.00
2023-02-15T02:12:16.837Z,102495.16
2023-02-15T02:14:48.354Z,102490.00
2023-02-15T02:17:19.909Z,102492.16
2023-02-15T02:19:51.385Z,102490.59
2023-02-15T02:22:23.038Z,102487.13
2023-02-15T02:24:54.531Z,102482.94
2023-02-15T02:27:26.332Z,102479.59
2023-02-15T02:29:57.935Z,102488.31
2023-02-15T02:32:29.789Z,102486.75
2023-02-15T02:35:01.295Z,102479.84
2023-02-15T02:37:33.076Z,102479.91
2023-02-15T02:40:05.183Z,102471.44
2023-02-15T02:42:37.023Z,102471.66
2023-02-15T02:45:08.512Z,102459.72
2023-02-15T02:47:40.026Z,102456.38
2023-02-15T02:50:11.523Z,102465.44
2023-02-15T02:52:43.395Z,102459.47
2023-02-15T02:55:14.937Z,102452.03
2023-02-15T02:57:46.698Z,102455.63
2023-02-15T03:00:18.214Z,102449.03
2023-02-15T03:02:50.340Z,102450.94
2023-02-15T03:05:21.943Z,102447.47
2023-02-15T03:07:53.485Z,102451.25
2023-02-15T03:10:25.061Z,102442.88
2023-02-15T03:12:56.897Z,102445.41
2023-02-15T03:15:48.405Z,102446.69
2023-02-15T03:18:19.992Z,102432.84
2023-02-15T03:20:51.502Z,102433.06
2023-02-15T03:23:23.061Z,102429.13
2023-02-15T03:25:54.564Z,102433.88
2023-02-15T03:28:26.406Z,102437.66
2023-02-15T03:30:58.085Z,102433.47
2023-02-15T03:33:30.132Z,102441.56
2023-02-15T03:36:01.919Z,102432.94
2023-02-15T03:38:33.850Z,102435.81
2023-02-15T03:41:11.586Z,102430.06
2023-02-15T03:43:43.366Z,102435.41
2023-02-15T03:46:14.878Z,102426.94
2023-02-15T03:48:46.759Z,102422.97
2023-02-15T03:51:37.331Z,102428.22
2023-02-15T03:54:09.542Z,102429.16
2023-02-15T03:56:41.109Z,102418.16
2023-02-15T03:59:31.885Z,102418.28
2023-02-15T04:02:03.760Z,102418.59
2023-02-15T04:04:35.272Z,102419.66
2023-02-15T04:07:07.154Z,102411.06
2023-02-15T04:09:57.324Z,102412.22
2023-02-15T04:12:29.011Z,102409.81
2023-02-15T04:15:19.074Z,102413.59
2023-02-15T04:17:50.827Z,102403.56
2023-02-15T04:20:41.109Z,102407.22
2023-02-15T04:23:31.498Z,102406.50
2023-02-15T04:26:03.279Z,102401.59
2023-02-15T04:28:35.213Z,102397.50
2023-02-15T04:31:06.729Z,102395.94
2023-02-15T04:33:38.693Z,102390.09
2023-02-15T04:36:10.187Z,102393.66
2023-02-15T04:38:41.984Z,102393.72
2023-02-15T04:41:14.035Z,102392.28
2023-02-15T04:43:45.786Z,102385.56
2023-02-15T04:46:17.319Z,102385.78
2023-02-15T04:48:49.120Z,102373.75
2023-02-15T04:51:20.626Z,102373.00
2023-02-15T04:53:53.814Z,102367.78
2023-02-15T04:56:25.354Z,102369.78
2023-02-15T04:58:57.238Z,102362.97
2023-02-15T05:01:28.890Z,102356.28
2023-02-15T05:04:00.776Z,102351.97
2023-02-15T05:06:32.297Z,102355.44
2023-02-15T05:09:04.108Z,102342.44
2023-02-15T05:11:35.622Z,102344.00
2023-02-15T05:14:07.557Z,102338.66
2023-02-15T05:16:39.067Z,102340.13
2023-02-15T05:19:11.897Z,102348.72
2023-02-15T05:21:43.419Z,102341.56
2023-02-15T05:24:33.860Z,102344.19
2023-02-15T05:27:24.041Z,102337.22
2023-02-15T05:29:55.769Z,102335.00
2023-02-15T05:32:27.510Z,102334.69
2023-02-15T05:34:59.454Z,102333.34
2023-02-15T05:37:30.953Z,102333.63
2023-02-15T05:40:02.736Z,102330.69
2023-02-15T05:42:34.249Z,102327.25
2023-02-15T05:45:06.851Z,102324.22
2023-02-15T05:47:38.394Z,102323.66
2023-02-15T05:50:10.209Z,102327.34
2023-02-15T05:52:41.704Z,102323.06
2023-02-15T05:55:13.764Z,102330.19
2023-02-15T05:57:45.251Z,102331.13
2023-02-15T06:00:17.036Z,102324.22
2023-02-15T06:02:48.574Z,102326.72
2023-02-15T06:05:20.293Z,102327.88
2023-02-15T06:07:51.795Z,102325.28
2023-02-15T06:10:23.670Z,102322.53
2023-02-15T06:12:55.172Z,102329.88
2023-02-15T06:15:26.892Z,102326.72
2023-02-15T06:17:58.431Z,102323.38
2023-02-15T06:20:29.941Z,102332.19
2023-02-15T06:23:01.725Z,102337.19
2023-02-15T06:25:35.245Z,102333.97
2023-02-15T06:28:07.899Z,102329.44
2023-02-15T06:30:39.420Z,102323.19
2023-02-15T06:33:10.953Z,102328.31
2023-02-15T06:35:42.570Z,102320.88
2023-02-15T06:38:14.077Z,102325.06
2023-02-15T06:40:45.557Z,102323.63
2023-02-15T06:43:17.063Z,102321.50
2023-02-15T06:45:48.589Z,102317.22
2023-02-15T06:48:20.198Z,102317.13
2023-02-15T06:50:51.737Z,102314.84
2023-02-15T06:53:23.774Z,102311.78
2023-02-15T06:55:55.384Z,102312.09
2023-02-15T06:58:27.185Z,102322.34
2023-02-15T07:00:58.671Z,102320.59
2023-02-15T07:03:30.543Z,102319.53
2023-02-15T07:06:02.410Z,102310.22
2023-02-15T07:08:34.532Z,102307.19
2023-02-15T07:11:24.805Z,102312.50
2023-02-15T07:13:56.799Z,102310.19
2023-02-15T07:16:29.025Z,102316.28
2023-02-15T07:19:00.918Z,102307.03
2023-02-15T07:21:32.418Z,102305.03
2023-02-15T07:24:04.307Z,102300.94
2023-02-15T07:26:35.828Z,102297.28
2023-02-15T07:29:07.778Z,102291.94
2023-02-15T07:31:39.294Z,102298.34
2023-02-15T07:34:10.788Z,102283.88
2023-02-15T07:36:58.216Z,102295.88
2023-02-15T07:39:29.731Z,102291.97
2023-02-15T07:42:01.244Z,102287.81
2023-02-15T07:44:33.142Z,102289.56
2023-02-15T07:47:04.693Z,102287.47
2023-02-15T07:49:36.548Z,102285.66
2023-02-15T07:52:08.135Z,102281.78
2023-02-15T07:54:40.088Z,102279.63
2023-02-15T07:57:11.622Z,102274.31
2023-02-15T07:59:43.456Z,102275.97
2023-02-15T08:02:16.910Z,102273.97
2023-02-15T08:04:49.998Z,102261.25
2023-02-15T08:07:21.554Z,102275.03
2023-02-15T08:09:54.654Z,102271.41
2023-02-15T08:12:26.199Z,102276.28
2023-02-15T08:14:57.703Z,102263.97
2023-02-15T08:17:29.213Z,102269.91
2023-02-15T08:20:00.736Z,102267.56
2023-02-15T08:22:32.231Z,102261.03
2023-02-15T08:25:03.961Z,102268.00
2023-02-15T08:27:35.433Z,102259.38
2023-02-15T08:30:07.286Z,102262.56
2023-02-15T08:32:38.858Z,102265.09
2023-02-15T08:35:11.046Z,102260.31
2023-02-15T08:37:42.521Z,102255.53
2023-02-15T08:40:14.530Z,102255.53
2023-02-15T08:42:46.003Z,102257.50
2023-02-15T08:45:17.513Z,102243.84
2023-02-15T08:47:49.008Z,102251.41
2023-02-15T08:50:20.511Z,102239.94
2023-02-15T08:52:52.019Z,102236.47
2023-02-15T08:55:23.950Z,102238.38
2023-02-15T08:57:56.510Z,102230.44
2023-02-15T09:00:29.823Z,102228.91
2023-02-15T09:03:01.366Z,102229.16
2023-02-15T09:05:33.320Z,102214.50
2023-02-15T09:08:04.962Z,102213.75
2023-02-15T09:10:36.940Z,102208.00
2023-02-15T09:13:08.705Z,102217.34
2023-02-15T09:15:40.548Z,102213.59
2023-02-15T09:18:13.180Z,102211.56
2023-02-15T09:20:45.722Z,102217.38
2023-02-15T09:23:26.819Z,102216.91
2023-02-15T09:25:58.726Z,102213.78
2023-02-15T09:28:30.598Z,102209.50
2023-02-15T09:31:02.321Z,102215.38
2023-02-15T09:33:33.965Z,102218.19
2023-02-15T09:36:05.468Z,102211.75
2023-02-15T09:38:37.206Z,102214.91
2023-02-15T09:41:08.766Z,102213.00
2023-02-15T09:43:40.564Z,102222.88
2023-02-15T09:46:12.304Z,102217.91
2023-02-15T09:48:44.250Z,102219.63
2023-02-15T09:51:15.713Z,102221.72
2023-02-15T09:53:47.636Z,102217.91
2023-02-15T09:56:21.013Z,102217.06
2023-02-15T09:58:53.962Z,102204.25
2023-02-15T10:01:25.861Z,102203.06
2023-02-15T10:03:57.831Z,102202.31
2023-02-15T10:06:29.355Z,102198.75
2023-02-15T10:09:01.216Z,102197.50
2023-02-15T10:11:41.763Z,102203.63
2023-02-15T10:14:13.803Z,102199.75
2023-02-15T10:16:45.453Z,102200.56
2023-02-15T10:19:16.952Z,102194.34
2023-02-15T10:21:48.474Z,102198.53
2023-02-15T10:24:19.963Z,102194.91
2023-02-15T10:26:51.444Z,102192.72
2023-02-15T10:29:23.003Z,102185.50
2023-02-15T10:31:54.602Z,102189.75
2023-02-15T10:34:26.167Z,102177.22
2023-02-15T10:36:57.651Z,102168.81
2023-02-15T10:39:29.759Z,102162.13
2023-02-15T10:42:01.267Z,102159.31
2023-02-15T10:44:32.979Z,102164.31
2023-02-15T10:47:04.495Z,102163.47
2023-02-15T10:49:36.284Z,102161.84
2023-02-15T10:52:07.742Z,102155.03
2023-02-15T10:54:39.699Z,102150.22
2023-02-15T10:57:11.245Z,102153.00
2023-02-15T10:59:42.845Z,102154.47
2023-02-15T11:02:14.407Z,102155.53
2023-02-15T11:04:46.165Z,102029.38
2023-02-15T11:07:17.769Z,102157.28
2023-02-15T11:09:49.547Z,102156.66
2023-02-15T11:12:21.063Z,102150.97
2023-02-15T11:14:54.404Z,102146.56
2023-02-15T11:17:25.906Z,102140.59
2023-02-15T11:19:57.732Z,102128.31
2023-02-15T11:22:29.209Z,102128.41
2023-02-15T11:25:01.058Z,102123.50
2023-02-15T11:27:34.010Z,102126.69
2023-02-15T11:30:05.779Z,102125.75
2023-02-15T11:32:37.314Z,102113.66
2023-02-15T11:35:09.159Z,102114.88
2023-02-15T11:37:40.657Z,102114.22
2023-02-15T11:40:12.467Z,102104.94
2023-02-15T11:42:43.946Z,102094.81
2023-02-15T11:45:15.450Z,102089.16
2023-02-15T11:47:46.930Z,102084.59
2023-02-15T11:50:19.227Z,102086.09
2023-02-15T11:52:50.791Z,102083.25
2023-02-15T11:55:22.494Z,102081.28
2023-02-15T11:57:54.046Z,102077.41
2023-02-15T12:00:25.924Z,102081.38
2023-02-15T12:02:57.513Z,102074.09
2023-02-15T12:05:29.472Z,102077.81
2023-02-15T12:08:01.021Z,102074.22
2023-02-15T12:10:32.837Z,102071.41
2023-02-15T12:13:04.325Z,102078.94
2023-02-15T12:15:36.264Z,102081.34
2023-02-15T12:18:08.303Z,102077.69
2023-02-15T12:20:39.813Z,102076.59
2023-02-15T12:23:11.291Z,102070.88
2023-02-15T12:25:43.273Z,102065.34
2023-02-15T12:28:15.065Z,102058.47
2023-02-15T12:30:47.261Z,102049.44
2023-02-15T12:33:18.734Z,102053.94
2023-02-15T12:35:51.699Z,102049.84
2023-02-15T12:38:23.178Z,102044.66
2023-02-15T12:40:55.036Z,102041.47
2023-02-15T12:43:26.563Z,102043.81
2023-02-15T12:45:58.486Z,102035.88
2023-02-15T12:48:29.998Z,102028.88
2023-02-15T12:51:01.525Z,102018.31
2023-02-15T12:53:33.165Z,102023.50
2023-02-15T12:56:04.786Z,102016.59
2023-02-15T12:58:36.260Z,102018.00
2023-02-15T13:01:08.079Z,102006.59
2023-02-15T13:03:39.669Z,102009.34
2023-02-15T13:06:11.537Z,102005.88
2023-02-15T13:08:43.031Z,101999.78
2023-02-15T13:11:15.574Z,102005.13
2023-02-15T13:13:47.175Z,101995.75
2023-02-15T13:16:18.685Z,101991.91
2023-02-15T13:18:50.156Z,101993.94
2023-02-15T13:21:21.689Z,101983.72
2023-02-15T13:23:53.210Z,101990.19
2023-02-15T13:26:25.125Z,101982.22
2023-02-15T13:28:56.691Z,101968.91
2023-02-15T13:31:29.046Z,101967.00
2023-02-15T13:34:00.621Z,101969.06
2023-02-15T13:36:32.708Z,101969.88
2023-02-15T13:39:04.239Z,101956.91
2023-02-15T13:41:36.814Z,101962.41
2023-02-15T13:44:08.451Z,101959.41
2023-02-15T13:46:41.258Z,101944.03
2023-02-15T13:49:14.170Z,101948.03
2023-02-15T13:51:45.958Z,101944.75
2023-02-15T13:54:17.461Z,101943.94
2023-02-15T13:56:49.318Z,101947.66
2023-02-15T13:59:20.819Z,101938.31
2023-02-15T14:01:52.722Z,101941.63
2023-02-15T14:04:24.307Z,101951.06
2023-02-15T14:06:56.635Z,101948.22
2023-02-15T14:09:28.115Z,101956.06
2023-02-15T14:12:00.018Z,101950.53
2023-02-15T14:14:31.739Z,101951.38
2023-02-15T14:17:07.320Z,101950.28
2023-02-15T14:19:39.182Z,101948.25
2023-02-15T14:22:12.670Z,101954.03
2023-02-15T14:24:45.446Z,101954.22
2023-02-15T14:27:16.972Z,101950.06
2023-02-15T14:29:48.558Z,101947.16
2023-02-15T14:32:20.281Z,101940.44
2023-02-15T14:34:51.927Z,101928.25
2023-02-15T14:37:23.599Z,101932.81
2023-02-15T14:40:14.030Z,101923.34
2023-02-15T14:42:45.513Z,101926.44
2023-02-15T14:45:17.009Z,101919.22
2023-02-15T14:47:48.486Z,101926.81
2023-02-15T14:50:19.989Z,101924.63
2023-02-15T14:52:51.499Z,101926.69
2023-02-15T14:55:23.031Z,101923.09
2023-02-15T14:57:54.545Z,101925.88
2023-02-15T15:00:26.341Z,101923.78
2023-02-15T15:02:57.856Z,101917.03
2023-02-15T15:05:29.806Z,101915.22
2023-02-15T15:08:01.316Z,101911.59
2023-02-15T15:10:33.197Z,101910.81
2023-02-15T15:13:04.702Z,101910.47
2023-02-15T15:15:38.409Z,101910.59
2023-02-15T15:18:11.029Z,101902.84
2023-02-15T15:20:43.176Z,101906.19
2023-02-15T15:23:14.667Z,101904.50
2023-02-15T15:25:46.580Z,101903.63
2023-02-15T15:28:18.087Z,101906.25
2023-02-15T15:30:50.097Z,101915.00
2023-02-15T15:33:21.703Z,101917.50
2023-02-15T15:35:53.898Z,101924.16
2023-02-15T15:38:25.479Z,101922.41
2023-02-15T15:40:57.286Z,101920.84
2023-02-15T15:43:31.333Z,101917.31
2023-02-15T15:46:03.316Z,101913.84
2023-02-15T15:48:35.589Z,101913.84
2023-02-15T15:51:07.117Z,101915.72
2023-02-15T15:53:38.634Z,101919.81
2023-02-15T15:56:11.312Z,101915.81
2023-02-15T15:58:42.804Z,101917.47
2023-02-15T16:01:15.651Z,101909.84
2023-02-15T16:03:47.194Z,101902.72
2023-02-15T16:06:18.746Z,101902.25
2023-02-15T16:08:52.101Z,101908.44
2023-02-15T16:11:23.704Z,101904.94
2023-02-15T16:13:55.235Z,101893.16
2023-02-15T16:16:29.068Z,101884.66
2023-02-15T16:19:00.831Z,101884.47
2023-02-15T16:21:33.154Z,101890.56
2023-02-15T16:24:04.632Z,101879.88
2023-02-15T16:26:36.163Z,101882.16
2023-02-15T16:29:07.682Z,101879.09
2023-02-15T16:31:39.310Z,101878.28
2023-02-15T16:34:11.030Z,101875.69
2023-02-15T16:36:42.919Z,101875.72
2023-02-15T16:39:14.459Z,101880.09
2023-02-15T16:41:47.097Z,101880.44
2023-02-15T16:44:18.622Z,101882.63
2023-02-15T16:46:50.286Z,101884.31
2023-02-15T16:49:21.866Z,101882.22
2023-02-15T16:51:53.355Z,101875.94
2023-02-15T16:54:24.906Z,101874.66
2023-02-15T16:56:56.490Z,101870.69
2023-02-15T16:59:28.302Z,101882.47
2023-02-15T17:02:00.155Z,101883.16
2023-02-15T17:04:32.514Z,101881.00
2023-02-15T17:07:04.008Z,101880.00
2023-02-15T17:09:35.554Z,101883.31
2023-02-15T17:12:08.512Z,101884.81
2023-02-15T17:14:43.098Z,101892.28
2023-02-15T17:17:14.990Z,101886.31
2023-02-15T17:19:46.513Z,101883.34
2023-02-15T17:22:18.008Z,101880.66
2023-02-15T17:24:49.514Z,101876.69
2023-02-15T17:27:21.097Z,101873.38
2023-02-15T17:29:53.017Z,101878.69
2023-02-15T17:32:25.395Z,101878.53
2023-02-15T17:34:56.982Z,101874.06
2023-02-15T17:37:28.907Z,101875.00
2023-02-15T17:40:00.553Z,101881.13
2023-02-15T17:42:32.516Z,101874.66
2023-02-15T17:45:04.104Z,101806.53
2023-02-15T17:47:35.939Z,101874.16
2023-02-15T17:50:07.426Z,101870.13
2023-02-15T17:52:39.117Z,101872.28
2023-02-15T17:55:29.483Z,101887.81
2023-02-15T17:58:01.042Z,101880.50
2023-02-15T18:00:51.240Z,101875.53
2023-02-15T18:03:41.692Z,101880.47
2023-02-15T18:06:32.389Z,101884.44
2023-02-15T18:09:22.524Z,101879.97
2023-02-15T18:11:54.409Z,101872.84
2023-02-15T18:14:25.933Z,101872.34
2023-02-15T18:16:57.927Z,101868.03
2023-02-15T18:19:29.515Z,101867.81
2023-02-15T18:22:01.272Z,101868.78
2023-02-15T18:24:32.801Z,101867.94
2023-02-15T18:27:04.669Z,101867.06
2023-02-15T18:29:36.195Z,101859.63
2023-02-15T18:32:08.173Z,101856.31
2023-02-15T18:34:39.811Z,101860.09
2023-02-15T18:37:11.679Z,101860.06
2023-02-15T18:39:45.569Z,101858.47
2023-02-15T18:42:17.205Z,101858.28
2023-02-15T18:44:48.699Z,101855.28
2023-02-15T18:47:20.235Z,101862.84
2023-02-15T18:49:51.720Z,101853.72
2023-02-15T18:52:23.419Z,101856.00
2023-02-15T18:54:54.976Z,101851.31
2023-02-15T18:57:26.499Z,101849.44
2023-02-15T18:59:57.993Z,101852.25
2023-02-15T19:02:29.901Z,101856.34
2023-02-15T19:05:01.398Z,101850.00
2023-02-15T19:07:33.232Z,101842.41
2023-02-15T19:10:04.806Z,101846.31
2023-02-15T19:12:36.364Z,101845.66
2023-02-15T19:15:08.908Z,101843.28
2023-02-15T19:17:40.395Z,101846.06
2023-02-15T19:20:11.873Z,101839.59
2023-02-15T19:22:43.704Z,101835.59
2023-02-15T19:25:15.169Z,101832.44
2023-02-15T19:27:46.780Z,101827.63
2023-02-15T19:30:18.311Z,101824.59
2023-02-15T19:32:50.110Z,101818.81
2023-02-15T19:35:22.462Z,101810.72
2023-02-15T19:37:53.969Z,101808.25
2023-02-15T19:40:25.533Z,101809.22
2023-02-15T19:42:57.204Z,101807.56
2023-02-15T19:45:28.701Z,101806.72
2023-02-15T19:48:00.181Z,101804.09
2023-02-15T19:50:31.690Z,101800.47
2023-02-15T19:53:03.444Z,101793.53
2023-02-15T19:55:34.997Z,101790.91
2023-02-15T19:58:06.512Z,101792.19
2023-02-15T20:00:38.045Z,101787.19
2023-02-15T20:03:09.782Z,101785.81
2023-02-15T20:05:42.321Z,101785.31
2023-02-15T20:08:13.803Z,101782.81
2023-02-15T20:10:45.904Z,101781.47
2023-02-15T20:13:17.434Z,101774.00
2023-02-15T20:15:49.031Z,101774.00
2023-02-15T20:18:22.590Z,101765.41
2023-02-15T20:20:54.316Z,101763.22
2023-02-15T20:23:26.526Z,101770.22
2023-02-15T20:25:58.889Z,101770.56
2023-02-15T20:28:30.487Z,101769.50
2023-02-15T20:31:02.507Z,101768.44
2023-02-15T20:33:34.603Z,101771.53
2023-02-15T20:36:06.587Z,101771.28
2023-02-15T20:38:38.063Z,101764.09
2023-02-15T20:41:28.888Z,101770.34
2023-02-15T20:44:00.428Z,101762.88
2023-02-15T20:46:32.000Z,101763.69
2023-02-15T20:49:03.601Z,101768.28
2023-02-15T20:51:35.196Z,101769.13
2023-02-15T20:54:06.734Z,101773.56
2023-02-15T20:56:38.291Z,101771.59
2023-02-15T20:59:09.981Z,101765.22
2023-02-15T21:01:41.976Z,101768.53
2023-02-15T21:04:13.565Z,101771.75
2023-02-15T21:06:45.382Z,101778.97
2023-02-15T21:09:16.860Z,101771.22
2023-02-15T21:11:48.397Z,101775.84
2023-02-15T21:14:20.014Z,101780.06
2023-02-15T21:16:51.898Z,101775.03
2023-02-15T21:19:23.398Z,101777.66
2023-02-15T21:21:54.990Z,101777.00
2023-02-15T21:24:26.506Z,101774.50
2023-02-15T21:26:58.393Z,101766.06
2023-02-15T21:29:30.000Z,101766.06
2023-02-15T21:32:03.017Z,101764.00
2023-02-15T21:34:34.550Z,101758.72
2023-02-15T21:37:06.482Z,101767.03
2023-02-15T21:39:37.989Z,101769.78
2023-02-15T21:42:28.688Z,101761.59
2023-02-15T21:45:18.844Z,101770.75
2023-02-15T21:47:51.795Z,101766.88
2023-02-15T21:50:41.996Z,101775.72
2023-02-15T21:53:13.817Z,101762.16
2023-02-15T21:55:45.316Z,101769.66
2023-02-15T21:58:16.825Z,101768.59
2023-02-15T22:00:48.391Z,101771.22
2023-02-15T22:03:19.937Z,101767.91
2023-02-15T22:05:51.508Z,101768.19
2023-02-15T22:08:23.077Z,101772.09
2023-02-15T22:10:54.574Z,101770.72
2023-02-15T22:13:26.626Z,101766.03
2023-02-15T22:15:58.193Z,101756.03
2023-02-15T22:18:33.027Z,101765.72
2023-02-15T22:21:05.288Z,101762.56
2023-02-15T22:23:37.360Z,101759.94
2023-02-15T22:26:08.857Z,101770.34
2023-02-15T22:28:40.516Z,101765.66
2023-02-15T22:31:12.111Z,101767.00
2023-02-15T22:33:45.151Z,101761.47
2023-02-15T22:36:16.635Z,101759.97
2023-02-15T22:38:48.376Z,101751.66
2023-02-15T22:41:20.219Z,101758.31
2023-02-15T22:43:52.048Z,101761.38
2023-02-15T22:46:23.734Z,101758.59
2023-02-15T22:48:55.608Z,101754.03
2023-02-15T22:51:27.116Z,101756.38
2023-02-15T22:53:58.744Z,101751.69
2023-02-15T22:56:30.215Z,101747.81
2023-02-15T22:59:02.134Z,101747.81
2023-02-15T23:01:33.674Z,101747.09
2023-02-15T23:04:05.603Z,101743.78
2023-02-15T23:06:37.102Z,101739.50
2023-02-15T23:09:08.949Z,101739.50
2023-02-15T23:11:40.457Z,101735.72
2023-02-15T23:14:12.285Z,101729.78
2023-02-15T23:16:43.807Z,101732.81
2023-02-15T23:19:15.375Z,101735.31
2023-02-15T23:21:46.895Z,101738.09
2023-02-15T23:24:18.554Z,101738.91
2023-02-15T23:26:50.046Z,101736.72
2023-02-15T23:29:21.551Z,101736.59
2023-02-15T23:31:53.229Z,101739.09
2023-02-15T23:34:25.198Z,101736.44
2023-02-15T23:36:56.713Z,101733.97
2023-02-15T23:39:47.561Z,101739.22
2023-02-15T23:42:19.131Z,101743.66
2023-02-15T23:44:51.120Z,101739.50
2023-02-15T23:47:42.941Z,101746.66
2023-02-15T23:50:14.434Z,101741.41
2023-02-15T23:52:46.323Z,101743.06
2023-02-15T23:55:17.806Z,101736.97
2023-02-15T23:57:49.704Z,101745.59
